Time;durP1;ratioP1;P1;durP2;ratioP2;P2;SDS_P1;SDS_P2;PMS_P1;PMS_P2;Temp;Humidity;BMP_temperature;BMP_pressure;BME280_temperature;BME280_humidity;BME280_pressure;Samples;Min_cycle;Max_cycle;Signal;HPM_P1;HPM_P2
2021/01/31 00:00:34;;;;;;;;;;;0.20;99.90;;;-1.75;80.48;100010.28;5031336;28;19925;-40
2021/01/31 00:03:07;;;;;;;;;;;0.20;99.90;;;-1.78;80.25;100005.25;5015899;28;20409;-40
2021/01/31 00:05:34;;;;;;;;;;;0.20;99.90;;;-1.86;80.42;100003.31;5031958;28;19971;-40
2021/01/31 00:08:01;;;;;;;;;;;0.10;99.90;;;-1.88;80.67;100003.47;5031908;28;19921;-40
2021/01/31 00:10:31;;;;;;;;;;;0.10;99.90;;;-1.84;81.13;100003.19;4999006;28;19921;-40
2021/01/31 00:13:00;;;;;;;;;;;0.10;99.90;;;-1.88;80.72;100005.31;5015355;28;19931;-40
2021/01/31 00:15:32;;;;;;;;;;;0.10;99.90;;;-1.91;81.12;100011.78;5015150;28;20402;-40
2021/01/31 00:18:01;;;;;;;;;;;0.10;99.90;;;-1.91;80.96;100002.94;5031806;28;19924;-40
2021/01/31 00:20:31;;;;;;;;;;;0.10;99.90;;;-1.95;81.31;100013.09;5015170;28;19986;-40
2021/01/31 00:22:59;;;;;;;;;;;0.00;99.90;;;-1.94;81.11;100006.75;5031742;28;19921;-40
2021/01/31 00:25:26;;;;;;;;;;;0.00;99.90;;;-1.96;81.33;100010.59;5015308;28;19925;-40
2021/01/31 00:27:53;;;;;;;;;;;0.00;99.90;;;-2.02;80.91;100009.34;5015341;28;20343;-40
2021/01/31 00:30:24;;;;;;;;;;;0.00;99.90;;;-2.03;81.98;100013.00;4999023;28;20303;-40
2021/01/31 00:32:51;;;;;;;;;;;0.00;99.90;;;-2.02;81.05;100026.22;5031380;28;20350;-40
2021/01/31 00:35:21;;;;;;;;;;;0.00;99.90;;;-2.00;81.22;100031.44;5031148;28;19960;-40
2021/01/31 00:37:48;;;;;;;;;;;0.00;99.90;;;-2.08;82.07;100029.50;5031596;28;19975;-40
2021/01/31 00:40:16;;;;;;;;;;;-0.10;99.90;;;-2.00;81.54;100031.44;4998749;28;19920;-40
2021/01/31 00:42:44;;;;;;;;;;;0.00;99.90;;;-2.09;82.24;100037.69;5031249;28;19945;-40
2021/01/31 00:45:15;;;;;;;;;;;-0.10;99.90;;;-2.07;81.22;100036.53;4998284;28;20007;-40
2021/01/31 00:47:43;;;;;;;;;;;-0.10;99.90;;;-2.09;82.26;100033.16;5014799;28;19925;-40
2021/01/31 00:50:15;;;;;;;;;;;-0.10;99.90;;;-2.11;81.67;100039.66;5031172;28;19925;-40
2021/01/31 00:52:42;;;;;;;;;;;-0.10;99.90;;;-2.09;81.90;100032.34;4998173;28;19921;-40
2021/01/31 00:55:12;;;;;;;;;;;-0.10;99.90;;;-2.08;81.72;100042.03;5030855;28;19921;-40
2021/01/31 00:57:40;;;;;;;;;;;-0.10;99.90;;;-2.05;82.06;100033.72;5032545;28;20016;-40
2021/01/31 01:00:18;;;;;;;;;;;-0.10;99.90;;;-2.03;81.46;100037.06;4998947;28;20322;-40
2021/01/31 01:02:46;;;;;;;;;;;-0.10;99.90;;;-2.01;82.00;100029.75;5031112;28;20004;-40
2021/01/31 01:05:18;;;;;;;;;;;0.00;99.90;;;-1.95;80.77;100034.47;5014653;28;19921;-40
2021/01/31 01:07:46;;;;;;;;;;;0.00;99.90;;;-2.07;81.89;100038.38;5014716;28;19921;-40
2021/01/31 01:10:16;;;;;;;;;;;-0.10;99.90;;;-2.08;82.14;100036.69;5030835;28;20012;-40
2021/01/31 01:12:44;;;;;;;;;;;-0.10;99.90;;;-2.12;82.11;100041.47;4998685;28;19967;-40
2021/01/31 01:15:16;;;;;;;;;;;-0.10;99.90;;;-2.11;81.95;100037.81;5014264;28;19927;-40
2021/01/31 01:17:43;;;;;;;;;;;-0.10;99.90;;;-2.19;81.55;100035.88;5030833;28;19927;-40
2021/01/31 01:20:12;;;;;;;;;;;-0.10;99.90;;;-2.14;81.55;100039.94;5014609;28;19928;-40
2021/01/31 01:22:39;;;;;;;;;;;-0.20;99.90;;;-2.24;81.86;100050.69;5014357;28;20005;-40
2021/01/31 01:25:08;;;;;;;;;;;-0.20;99.90;;;-2.21;81.86;100053.91;5014588;28;20311;-40
2021/01/31 01:27:37;;;;;;;;;;;-0.20;99.90;;;-2.22;81.88;100059.41;5030948;28;20234;-40
2021/01/31 01:30:07;;;;;;;;;;;-0.20;99.90;;;-2.23;81.92;100057.72;5014469;28;20327;-40
2021/01/31 01:32:34;;;;;;;;;;;-0.30;99.90;;;-2.22;82.01;100057.56;4998144;28;20015;-40
2021/01/31 01:35:01;;;;;;;;;;;-0.20;99.90;;;-2.26;81.92;100056.19;5013878;28;19921;-40
2021/01/31 01:37:28;;;;;;;;;;;-0.30;99.90;;;-2.29;82.29;100048.47;4998001;28;19991;-40
2021/01/31 01:39:55;;;;;;;;;;;-0.30;99.90;;;-2.30;82.32;100052.13;4998343;28;19987;-40
2021/01/31 01:42:22;;;;;;;;;;;-0.30;99.90;;;-2.39;82.60;100055.66;4997852;28;19925;-40
2021/01/31 01:44:49;;;;;;;;;;;-0.40;99.90;;;-2.43;82.50;100052.47;5013833;28;19971;-40
2021/01/31 01:47:20;;;;;;;;;;;-0.40;99.90;;;-2.44;82.10;100042.75;4997939;28;19959;-40
2021/01/31 01:49:50;;;;;;;;;;;-0.40;99.90;;;-2.46;83.20;100037.56;5030823;28;20413;-40
2021/01/31 01:52:22;;;;;;;;;;;-0.40;99.90;;;-2.52;83.31;100037.28;4997757;28;19928;-40
2021/01/31 01:54:57;;;;;;;;;;;-0.50;99.90;;;-2.58;83.42;100036.06;4997651;28;20466;-40
2021/01/31 01:57:29;;;;;;;;;;;-0.50;99.90;;;-2.58;82.96;100028.06;5014567;28;20012;-40
2021/01/31 01:59:57;;;;;;;;;;;-0.50;99.90;;;-2.63;84.12;100035.66;4997853;28;19929;-40
2021/01/31 02:02:31;;;;;;;;;;;-0.60;99.90;;;-2.68;83.87;100028.09;4997750;28;19971;-40
2021/01/31 02:05:02;;;;;;;;;;;-0.60;99.90;;;-2.67;83.45;100039.59;4997693;28;19921;-40
2021/01/31 02:07:29;;;;;;;;;;;-0.60;99.90;;;-2.69;83.65;100038.91;4997861;28;20113;-40
2021/01/31 02:09:56;;;;;;;;;;;-0.70;99.90;;;-2.70;84.19;100034.53;5014253;28;19944;-40
2021/01/31 02:12:27;;;;;;;;;;;-0.60;99.90;;;-2.72;83.68;100041.88;4998000;28;19925;-40
2021/01/31 02:15:00;;;;;;;;;;;-0.70;99.90;;;-2.73;83.43;100043.72;5013855;28;19921;-40
2021/01/31 02:17:44;;;;;;;;;;;-0.70;99.90;;;-2.72;83.69;100047.19;5030507;28;19943;-40
2021/01/31 02:20:31;;;;;;;;;;;-0.70;99.90;;;-2.77;84.13;100045.81;5013984;28;19921;-40
2021/01/31 02:23:08;;;;;;;;;;;-0.70;99.90;;;-2.83;84.86;100054.41;5014106;28;19951;-40
2021/01/31 02:25:55;;;;;;;;;;;-0.80;99.90;;;-2.77;83.91;100043.16;5017512;28;19921;-40
2021/01/31 02:28:33;;;;;;;;;;;-0.80;99.90;;;-2.82;83.97;100056.09;5033929;28;20268;-40
2021/01/31 02:31:20;;;;;;;;;;;-0.80;99.90;;;-2.80;84.59;100055.94;5000999;28;19928;-40
2021/01/31 02:33:57;;;;;;;;;;;-0.80;99.90;;;-2.86;84.55;100052.03;5000918;28;19921;-40
2021/01/31 02:36:43;;;;;;;;;;;-0.80;99.90;;;-2.86;84.54;100057.38;5000858;28;19921;-40
2021/01/31 02:39:29;;;;;;;;;;;-0.80;99.90;;;-2.98;84.61;100059.34;5017278;28;19932;-40
2021/01/31 02:42:03;;;;;;;;;;;-0.90;99.90;;;-2.90;84.12;100053.31;5017199;28;19921;-40
2021/01/31 02:44:36;;;;;;;;;;;-0.90;99.90;;;-2.98;84.32;100056.69;5033228;28;20031;-40
2021/01/31 02:47:12;;;;;;;;;;;-0.90;99.90;;;-3.04;84.85;100057.28;5017237;28;19921;-40
2021/01/31 02:49:49;;;;;;;;;;;-1.00;99.90;;;-3.10;85.22;100064.00;5017104;28;19931;-40
2021/01/31 02:52:37;;;;;;;;;;;-1.00;99.90;;;-3.07;85.42;100061.06;5016775;28;19920;-40
2021/01/31 02:55:18;;;;;;;;;;;-1.00;99.90;;;-3.07;85.14;100063.72;5019498;28;20391;-40
2021/01/31 02:57:55;;;;;;;;;;;-1.00;99.90;;;-3.03;84.65;100057.09;5034753;28;19921;-40
2021/01/31 03:00:26;;;;;;;;;;;-1.00;99.90;;;-3.08;85.33;100054.03;5000618;28;19921;-40
2021/01/31 03:03:06;;;;;;;;;;;-1.10;99.90;;;-3.15;85.24;100049.41;5016899;28;19921;-40
2021/01/31 03:05:38;;;;;;;;;;;-1.10;99.90;;;-3.19;85.07;100051.50;5032944;28;19986;-40
2021/01/31 03:08:13;;;;;;;;;;;-1.10;99.90;;;-3.22;85.51;100051.78;5000765;28;19956;-40
2021/01/31 03:10:49;;;;;;;;;;;-1.20;99.90;;;-3.29;85.21;100043.53;5016518;28;19924;-40
2021/01/31 03:13:29;;;;;;;;;;;-1.20;99.90;;;-3.28;85.92;100052.34;5016444;28;20019;-40
2021/01/31 03:16:07;;;;;;;;;;;-1.20;99.90;;;-3.28;85.97;100049.69;5033140;28;20451;-40
2021/01/31 03:18:40;;;;;;;;;;;-1.20;99.90;;;-3.35;85.57;100046.72;5016641;28;20391;-40
2021/01/31 03:21:20;;;;;;;;;;;-1.30;99.90;;;-3.46;85.63;100050.38;5016366;28;20446;-40
2021/01/31 03:23:56;;;;;;;;;;;-1.30;99.90;;;-3.47;86.10;100046.03;5016356;28;19925;-40
2021/01/31 03:26:38;;;;;;;;;;;-1.40;99.90;;;-3.43;85.43;100050.13;5016258;28;20350;-40
2021/01/31 03:29:05;;;;;;;;;;;-1.40;99.90;;;-3.52;86.06;100045.63;4999943;28;19964;-40
2021/01/31 03:31:36;;;;;;;;;;;-1.40;99.90;;;-3.59;86.04;100047.16;5016207;28;19921;-40
2021/01/31 03:34:09;;;;;;;;;;;-1.50;99.90;;;-3.57;86.19;100046.06;5000292;28;19921;-40
2021/01/31 03:36:44;;;;;;;;;;;-1.50;99.90;;;-3.63;86.32;100042.13;4998939;28;19928;-40
2021/01/31 03:39:14;;;;;;;;;;;-1.50;99.90;;;-3.70;86.37;100043.66;5016223;28;20254;-40
2021/01/31 03:41:42;;;;;;;;;;;-1.60;99.90;;;-3.72;86.75;100042.94;5016344;28;20418;-40
2021/01/31 03:44:09;;;;;;;;;;;-1.60;99.90;;;-3.63;86.40;100044.78;5015533;28;19925;-40
2021/01/31 03:46:49;;;;;;;;;;;-1.60;99.90;;;-3.68;86.46;100048.84;5016141;28;20354;-40
2021/01/31 03:49:27;;;;;;;;;;;-1.60;99.90;;;-3.73;86.31;100046.56;4999727;28;19921;-40
2021/01/31 03:51:55;;;;;;;;;;;-1.60;99.90;;;-3.71;86.10;100047.31;5014787;28;19921;-40
2021/01/31 03:54:23;;;;;;;;;;;-1.60;99.90;;;-3.70;86.62;100045.47;5032077;28;20016;-40
2021/01/31 03:56:57;;;;;;;;;;;-1.60;99.90;;;-3.71;86.67;100047.31;5015738;28;19920;-40
2021/01/31 03:59:32;;;;;;;;;;;-1.60;99.90;;;-3.67;86.12;100050.53;4999979;28;20358;-40
2021/01/31 04:02:01;;;;;;;;;;;-1.60;99.90;;;-3.82;86.27;100052.75;4999312;28;19921;-40
2021/01/31 04:04:36;;;;;;;;;;;-1.70;99.90;;;-3.82;86.70;100064.28;4999450;28;20303;-40
2021/01/31 04:07:06;;;;;;;;;;;-1.70;99.90;;;-3.84;86.52;100062.72;5031962;28;19974;-40
2021/01/31 04:09:36;;;;;;;;;;;-1.70;99.90;;;-3.87;86.59;100063.81;5031846;28;20019;-40
2021/01/31 04:12:07;;;;;;;;;;;-1.80;99.90;;;-3.82;86.18;100063.41;5031701;28;19928;-40
2021/01/31 04:14:54;;;;;;;;;;;-1.70;99.90;;;-3.94;86.63;100055.53;5031824;28;20387;-40
2021/01/31 04:17:22;;;;;;;;;;;-1.80;99.90;;;-3.97;87.33;100055.81;4999101;28;19921;-40
2021/01/31 04:19:49;;;;;;;;;;;-1.80;99.90;;;-4.06;86.77;100052.16;5015632;28;20335;-40
2021/01/31 04:22:17;;;;;;;;;;;-1.90;99.90;;;-4.11;87.25;100061.53;4999145;28;19921;-40
2021/01/31 04:24:46;;;;;;;;;;;-1.90;99.90;;;-4.13;87.24;100053.66;5031333;28;19921;-40
2021/01/31 04:27:14;;;;;;;;;;;-2.00;99.90;;;-4.10;87.27;100063.22;5015065;28;19921;-40
2021/01/31 04:29:42;;;;;;;;;;;-2.00;99.90;;;-4.14;87.97;100061.81;5015164;28;19921;-40
2021/01/31 04:32:11;;;;;;;;;;;-2.00;99.90;;;-4.20;87.78;100068.50;4998880;28;20019;-40
2021/01/31 04:34:38;;;;;;;;;;;-2.00;99.90;;;-4.20;87.89;100064.03;5016618;28;19928;-40
2021/01/31 04:37:05;;;;;;;;;;;-2.10;99.90;;;-4.21;87.34;100061.50;4999152;28;20302;-40
2021/01/31 04:39:33;;;;;;;;;;;-2.10;99.90;;;-4.19;87.04;100068.38;5015166;28;19956;-40
2021/01/31 04:42:02;;;;;;;;;;;-2.10;99.90;;;-4.24;87.59;100065.28;5014940;28;19999;-40
2021/01/31 04:44:30;;;;;;;;;;;-2.10;99.90;;;-4.26;87.54;100075.19;5014732;28;20422;-40
2021/01/31 04:47:06;;;;;;;;;;;-2.10;99.90;;;-4.30;87.81;100078.28;5014860;28;19928;-40
2021/01/31 04:49:44;;;;;;;;;;;-2.10;99.90;;;-4.30;87.62;100081.78;5015354;28;19975;-40
2021/01/31 04:52:22;;;;;;;;;;;-2.10;99.90;;;-4.30;87.79;100083.63;5014894;28;20325;-40
2021/01/31 04:55:01;;;;;;;;;;;-2.20;99.90;;;-4.36;87.92;100088.50;5030831;28;19925;-40
2021/01/31 04:57:39;;;;;;;;;;;-2.20;99.90;;;-4.28;87.64;100093.16;4984040;28;19920;-40
2021/01/31 05:00:15;;;;;;;;;;;-2.20;99.90;;;-4.28;87.98;100092.31;4999027;28;19925;-40
2021/01/31 05:02:47;;;;;;;;;;;-2.20;99.90;;;-4.35;87.35;100086.66;5015771;28;20003;-40
2021/01/31 05:05:19;;;;;;;;;;;-2.20;99.90;;;-4.39;87.71;100087.91;4998195;28;19925;-40
2021/01/31 05:07:58;;;;;;;;;;;-2.20;99.90;;;-4.43;87.94;100089.16;5015081;28;19928;-40
2021/01/31 05:10:27;;;;;;;;;;;-2.30;99.90;;;-4.40;87.67;100083.56;4998720;28;19921;-40
2021/01/31 05:13:03;;;;;;;;;;;-2.30;99.90;;;-4.42;87.94;100089.03;5014369;28;19925;-40
2021/01/31 05:15:38;;;;;;;;;;;-2.30;99.90;;;-4.48;87.91;100076.25;5030728;28;19928;-40
2021/01/31 05:18:07;;;;;;;;;;;-2.30;99.90;;;-4.50;87.97;100081.72;5014468;28;19927;-40
2021/01/31 05:20:36;;;;;;;;;;;-2.30;99.90;;;-4.48;87.97;100076.25;5014200;28;20295;-40
2021/01/31 05:23:04;;;;;;;;;;;-2.30;99.90;;;-4.53;88.26;100089.13;5014483;28;20372;-40
2021/01/31 05:25:36;;;;;;;;;;;-2.40;99.90;;;-4.55;88.62;100094.56;5030568;28;19921;-40
2021/01/31 05:28:07;;;;;;;;;;;-2.40;99.90;;;-4.54;88.66;100095.41;5031034;28;19943;-40
2021/01/31 05:30:41;;;;;;;;;;;-2.40;99.90;;;-4.63;88.20;100089.06;5014209;28;19925;-40
2021/01/31 05:33:18;;;;;;;;;;;-2.50;99.90;;;-4.71;88.41;100096.88;5014464;28;19921;-40
2021/01/31 05:35:47;;;;;;;;;;;-2.50;99.90;;;-4.68;88.43;100094.78;5014295;28;19920;-40
2021/01/31 05:38:34;;;;;;;;;;;-2.50;99.90;;;-4.62;88.62;100101.41;5030876;28;20405;-40
2021/01/31 05:41:31;;;;;;;;;;;-2.50;99.90;;;-4.65;88.59;100094.50;5030605;28;19925;-40
2021/01/31 05:43:59;;;;;;;;;;;-2.50;99.90;;;-4.65;88.41;100091.00;5018609;28;19927;-40
2021/01/31 05:46:37;;;;;;;;;;;-2.50;99.90;;;-4.68;88.56;100091.28;5014343;28;19975;-40
2021/01/31 05:49:09;;;;;;;;;;;-2.50;99.90;;;-4.63;88.60;100094.38;5014538;28;20012;-40
2021/01/31 05:51:36;;;;;;;;;;;-2.50;99.90;;;-4.62;88.59;100096.06;5030319;28;19928;-40
2021/01/31 05:54:22;;;;;;;;;;;-2.50;99.90;;;-4.71;88.56;100099.53;5014107;28;20450;-40
2021/01/31 05:56:49;;;;;;;;;;;-2.50;99.90;;;-4.81;88.88;100100.31;5030572;28;19948;-40
2021/01/31 05:59:16;;;;;;;;;;;-2.60;99.90;;;-4.84;88.88;100102.41;5015840;28;20391;-40
2021/01/31 06:01:55;;;;;;;;;;;-2.60;99.90;;;-4.78;89.07;100097.38;5017731;28;20003;-40
2021/01/31 06:04:26;;;;;;;;;;;-2.60;99.90;;;-4.78;88.95;100102.69;5001510;28;19943;-40
2021/01/31 06:07:02;;;;;;;;;;;-2.60;99.90;;;-4.83;89.10;100101.41;5001966;28;19948;-40
2021/01/31 06:09:41;;;;;;;;;;;-2.70;99.90;;;-4.87;89.17;100106.16;5002780;28;19932;-40
2021/01/31 06:12:20;;;;;;;;;;;-2.70;99.90;;;-4.95;89.28;100096.16;5017699;28;20392;-40
2021/01/31 06:14:50;;;;;;;;;;;-2.70;99.90;;;-4.98;89.37;100090.25;5017409;28;20358;-40
2021/01/31 06:17:29;;;;;;;;;;;-2.80;99.90;;;-5.04;89.20;100096.94;5017576;28;20334;-40
2021/01/31 06:20:00;;;;;;;;;;;-2.80;99.90;;;-5.09;89.27;100099.16;5001983;28;19921;-40
2021/01/31 06:22:39;;;;;;;;;;;-2.90;99.90;;;-5.13;88.88;100103.88;5001223;28;20341;-40
2021/01/31 06:25:07;;;;;;;;;;;-2.90;99.90;;;-5.19;88.86;100107.03;5033740;28;20011;-40
2021/01/31 06:27:36;;;;;;;;;;;-3.00;99.90;;;-5.21;89.15;100103.66;5017519;28;19921;-40
2021/01/31 06:30:19;;;;;;;;;;;-3.00;99.90;;;-5.20;89.28;100100.03;5034059;28;19971;-40
2021/01/31 06:32:50;;;;;;;;;;;-3.00;99.90;;;-5.21;88.98;100107.16;5002260;28;19921;-40
2021/01/31 06:35:21;;;;;;;;;;;-3.00;99.90;;;-5.28;89.22;100105.16;5033527;28;19921;-40
2021/01/31 06:38:07;;;;;;;;;;;-3.10;99.90;;;-5.37;89.17;100112.91;5017266;28;19921;-40
2021/01/31 06:40:43;;;;;;;;;;;-3.10;99.90;;;-5.41;89.10;100122.13;5018681;28;19947;-39
2021/01/31 06:43:14;;;;;;;;;;;-3.20;99.90;;;-5.35;89.75;100126.91;5033591;28;20371;-40
2021/01/31 06:45:55;;;;;;;;;;;-3.20;99.90;;;-5.38;89.76;100131.66;5017027;28;19927;-40
2021/01/31 06:48:41;;;;;;;;;;;-3.20;99.90;;;-5.41;89.87;100137.25;5034779;28;19952;-40
2021/01/31 06:51:22;;;;;;;;;;;-3.20;99.90;;;-5.42;90.17;100136.38;5017019;28;20383;-40
2021/01/31 06:53:59;;;;;;;;;;;-3.20;99.90;;;-5.40;90.39;100141.59;5016460;28;19956;-40
2021/01/31 06:56:44;;;;;;;;;;;-3.20;99.90;;;-5.44;90.45;100140.13;5016925;28;19967;-40
2021/01/31 06:59:33;;;;;;;;;;;-3.20;99.90;;;-5.46;90.05;100150.91;5001891;28;19991;-40
2021/01/31 07:02:20;;;;;;;;;;;-3.20;99.90;;;-5.52;90.12;100132.78;5033482;28;19925;-40
2021/01/31 07:04:54;;;;;;;;;;;-3.30;99.90;;;-5.55;89.86;100125.91;5016674;28;20380;-40
2021/01/31 07:07:40;;;;;;;;;;;-3.30;99.90;;;-5.61;89.64;100125.56;5000494;28;19967;-40
2021/01/31 07:10:16;;;;;;;;;;;-3.30;99.90;;;-5.67;89.53;100129.56;5016373;28;20367;-40
2021/01/31 07:13:03;;;;;;;;;;;-3.40;99.90;;;-5.67;89.90;100121.59;5033202;28;19998;-40
2021/01/31 07:15:46;;;;;;;;;;;-3.40;99.90;;;-5.68;90.10;100120.75;5032899;28;19971;-40
2021/01/31 07:18:17;;;;;;;;;;;-3.50;99.90;;;-5.64;90.22;100121.34;5016527;28;20387;-40
2021/01/31 07:20:48;;;;;;;;;;;-3.40;99.90;;;-5.64;90.26;100116.84;5034182;28;19927;-40
2021/01/31 07:23:26;;;;;;;;;;;-3.40;99.90;;;-5.55;90.19;100133.03;5032971;28;19955;-39
2021/01/31 07:26:21;;;;;;;;;;;-3.40;99.90;;;-5.49;90.56;100145.84;5016377;28;19921;-40
2021/01/31 07:28:53;;;;;;;;;;;-3.30;99.90;;;-5.39;90.72;100164.53;5033056;28;19943;-40
2021/01/31 07:31:40;;;;;;;;;;;-3.30;99.90;;;-5.35;90.84;100158.00;5016131;28;19940;-40
2021/01/31 07:34:12;;;;;;;;;;;-3.20;99.90;;;-5.31;90.44;100147.94;5016005;28;20390;-40
2021/01/31 07:36:56;;;;;;;;;;;-3.20;99.90;;;-5.34;90.40;100159.69;5032594;28;19925;-40
2021/01/31 07:39:36;;;;;;;;;;;-3.20;99.90;;;-5.34;90.63;100165.00;5032524;28;19949;-40
2021/01/31 07:42:04;;;;;;;;;;;-3.20;99.90;;;-5.29;90.47;100148.69;5033639;28;19921;-40
2021/01/31 07:44:37;;;;;;;;;;;-3.20;99.90;;;-5.25;90.34;100134.16;5016324;28;19921;-40
2021/01/31 07:47:05;;;;;;;;;;;-3.10;99.90;;;-5.22;90.06;100141.88;5032439;28;19921;-40
2021/01/31 07:49:52;;;;;;;;;;;-3.10;99.90;;;-5.20;90.21;100145.25;5015805;28;20393;-40
2021/01/31 07:52:19;;;;;;;;;;;-3.10;99.90;;;-5.14;90.07;100134.09;5033374;28;19921;-40
2021/01/31 07:54:46;;;;;;;;;;;-3.10;99.90;;;-5.09;90.13;100126.56;5015402;28;19921;-40
2021/01/31 07:57:34;;;;;;;;;;;-3.00;99.90;;;-5.02;89.98;100129.56;5048820;28;19921;-40
2021/01/31 08:00:12;;;;;;;;;;;-3.00;99.90;;;-4.95;89.74;100130.75;5017469;28;19921;-40
2021/01/31 08:02:45;;;;;;;;;;;-2.90;99.90;;;-4.90;89.67;100119.72;5032368;28;19921;-40
2021/01/31 08:05:14;;;;;;;;;;;-2.90;99.90;;;-4.86;89.63;100118.47;5015895;28;19924;-40
2021/01/31 08:08:01;;;;;;;;;;;-2.80;99.90;;;-4.74;89.22;100121.94;5031966;28;19928;-40
2021/01/31 08:10:47;;;;;;;;;;;-2.80;99.90;;;-4.62;89.49;100134.22;5000666;28;20004;-39
2021/01/31 08:13:36;;;;;;;;;;;-2.60;99.90;;;-4.57;88.90;100131.13;5015705;28;19921;-40
2021/01/31 08:16:22;;;;;;;;;;;-2.60;99.90;;;-4.52;88.96;100131.56;5034844;28;19921;-40
2021/01/31 08:19:01;;;;;;;;;;;-2.50;99.90;;;-4.41;88.95;100128.00;5048221;28;20453;-40
2021/01/31 08:21:48;;;;;;;;;;;-2.40;99.90;;;-4.29;88.84;100138.59;5014624;28;20008;-40
2021/01/31 08:24:45;;;;;;;;;;;-2.40;99.90;;;-4.14;87.75;100133.75;5015236;28;19928;-40
2021/01/31 08:27:13;;;;;;;;;;;-2.20;99.90;;;-4.01;86.65;100141.50;5019406;28;19921;-40
2021/01/31 08:29:42;;;;;;;;;;;-2.10;99.90;;;-3.89;86.31;100140.41;5032745;28;19925;-40
2021/01/31 08:32:11;;;;;;;;;;;-2.00;99.90;;;-3.74;85.53;100143.53;5031602;28;19921;-40
2021/01/31 08:35:01;;;;;;;;;;;-1.90;99.90;;;-3.62;84.79;100137.13;4998467;28;19927;-40
2021/01/31 08:37:29;;;;;;;;;;;-1.80;99.90;;;-3.52;84.78;100136.31;5018172;28;19928;-40
2021/01/31 08:39:56;;;;;;;;;;;-1.60;99.90;;;-3.48;84.24;100127.91;5015187;28;19921;-40
2021/01/31 08:42:24;;;;;;;;;;;-1.60;99.90;;;-3.37;84.92;100140.28;5015038;28;20342;-40
2021/01/31 08:44:56;;;;;;;;;;;-1.50;99.90;;;-3.29;84.07;100142.25;5032377;28;20307;-40
2021/01/31 08:47:24;;;;;;;;;;;-1.40;99.90;;;-3.18;83.90;100135.94;5031418;28;20434;-40
2021/01/31 08:50:03;;;;;;;;;;;-1.40;99.90;;;-3.05;82.66;100136.50;4998857;28;20423;-40
2021/01/31 08:52:30;;;;;;;;;;;-1.20;99.90;;;-2.97;82.63;100133.13;5031015;28;19956;-40
2021/01/31 08:54:59;;;;;;;;;;;-1.10;99.90;;;-2.89;82.22;100137.75;5030789;28;19921;-40
2021/01/31 08:57:27;;;;;;;;;;;-1.10;99.90;;;-2.80;82.39;100136.91;5031229;28;19952;-40
2021/01/31 08:59:54;;;;;;;;;;;-1.00;99.90;;;-2.69;81.13;100135.91;5032307;28;19921;-40
2021/01/31 09:02:31;;;;;;;;;;;-0.90;99.90;;;-2.61;81.68;100140.53;4998313;28;20023;-40
2021/01/31 09:05:10;;;;;;;;;;;-0.80;99.90;;;-2.51;81.09;100137.84;5014483;28;19967;-40
2021/01/31 09:07:40;;;;;;;;;;;-0.70;99.90;;;-2.40;80.97;100148.34;5031257;28;20015;-40
2021/01/31 09:10:26;;;;;;;;;;;-0.60;99.90;;;-2.33;79.58;100138.75;5032179;28;20455;-40
2021/01/31 09:13:12;;;;;;;;;;;-0.50;99.90;;;-2.26;79.65;100152.38;5032328;28;20350;-40
2021/01/31 09:15:40;;;;;;;;;;;-0.40;99.90;;;-2.17;78.70;100150.69;5032189;28;20020;-40
2021/01/31 09:18:19;;;;;;;;;;;-0.30;99.90;;;-2.05;78.84;100148.66;5014496;28;19921;-40
2021/01/31 09:20:48;;;;;;;;;;;-0.30;99.90;;;-1.93;79.06;100141.31;5030747;28;19921;-40
2021/01/31 09:23:34;;;;;;;;;;;-0.20;99.90;;;-1.84;78.86;100140.41;5014413;28;19927;-40
2021/01/31 09:26:03;;;;;;;;;;;-0.10;99.90;;;-1.70;78.67;100136.38;5031990;28;20444;-40
2021/01/31 09:28:31;;;;;;;;;;;0.00;99.90;;;-1.61;78.35;100140.00;5030809;28;19925;-40
2021/01/31 09:31:02;;;;;;;;;;;0.10;99.90;;;-1.51;77.79;100145.31;5031049;28;19921;-40
2021/01/31 09:33:33;;;;;;;;;;;0.20;99.90;;;-1.43;76.74;100150.75;5032515;28;19963;-40
2021/01/31 09:36:20;;;;;;;;;;;0.30;99.90;;;-1.37;76.21;100150.13;5035095;28;19925;-40
2021/01/31 09:38:48;;;;;;;;;;;0.40;99.90;;;-1.28;76.10;100148.38;5035002;28;19924;-40
2021/01/31 09:41:19;;;;;;;;;;;0.50;99.90;;;-1.17;76.05;100145.50;5034526;28;19953;-40
2021/01/31 09:43:56;;;;;;;;;;;0.50;99.90;;;-1.10;75.08;100145.72;5036025;28;20462;-40
2021/01/31 09:46:25;;;;;;;;;;;0.60;99.90;;;-0.96;75.83;100135.47;5034721;28;19959;-40
2021/01/31 09:49:06;;;;;;;;;;;0.70;99.90;;;-0.87;75.16;100140.75;5034702;28;19944;-40
2021/01/31 09:51:35;;;;;;;;;;;0.80;99.90;;;-0.80;72.78;100132.09;5035293;28;20453;-40
2021/01/31 09:54:20;;;;;;;;;;;0.90;99.90;;;-0.70;73.67;100140.03;5001601;28;19928;-40
2021/01/31 09:56:53;;;;;;;;;;;0.90;99.90;;;-0.59;73.65;100131.72;5018075;28;19968;-40
2021/01/31 09:59:32;;;;;;;;;;;1.00;99.90;;;-0.47;73.38;100130.50;5035761;28;19924;-40
2021/01/31 10:02:04;;;;;;;;;;;1.10;99.90;;;-0.35;73.47;100120.34;5034607;28;19944;-40
2021/01/31 10:04:33;;;;;;;;;;;1.30;99.90;;;-0.34;71.86;100124.72;5034425;28;20350;-40
2021/01/31 10:07:13;;;;;;;;;;;1.40;99.90;;;-0.25;72.64;100125.59;5035597;28;19921;-40
2021/01/31 10:09:50;;;;;;;;;;;1.40;99.90;;;-0.21;72.58;100123.44;5034239;28;20307;-40
2021/01/31 10:12:29;;;;;;;;;;;1.50;99.90;;;-0.18;72.34;100121.28;5035532;28;19956;-40
2021/01/31 10:15:01;;;;;;;;;;;1.60;99.90;;;-0.15;73.00;100122.78;5033925;28;20383;-40
2021/01/31 10:17:29;;;;;;;;;;;1.60;99.90;;;-0.09;71.28;100118.63;5035375;28;19944;-40
2021/01/31 10:20:16;;;;;;;;;;;1.60;99.90;;;-0.06;70.89;100112.94;5017607;28;19921;-40
2021/01/31 10:22:42;;;;;;;;;;;1.60;99.90;;;0.07;71.35;100110.66;5035180;28;19983;-40
2021/01/31 10:25:10;;;;;;;;;;;1.70;99.90;;;0.19;71.00;100108.53;5033927;28;19921;-40
2021/01/31 10:27:48;;;;;;;;;;;1.80;99.90;;;0.30;70.65;100103.88;5050404;28;19928;-40
2021/01/31 10:30:22;;;;;;;;;;;1.90;99.90;;;0.33;70.02;100103.53;5033790;28;20414;-40
2021/01/31 10:32:50;;;;;;;;;;;2.00;99.90;;;0.38;70.44;100095.81;5034993;28;20004;-40
2021/01/31 10:35:29;;;;;;;;;;;2.00;99.90;;;0.47;69.40;100092.19;5018475;28;19920;-41
2021/01/31 10:37:58;;;;;;;;;;;2.10;99.90;;;0.58;68.37;100085.66;5034973;28;20376;-41
2021/01/31 10:40:26;;;;;;;;;;;2.20;99.90;;;0.66;67.92;100082.13;5033527;28;19921;-41
2021/01/31 10:43:17;;;;;;;;;;;2.30;99.90;;;0.77;67.87;100070.22;5018988;28;19921;-40
2021/01/31 10:45:44;;;;;;;;;;;2.40;99.90;;;0.86;67.92;100071.94;5034231;28;19921;-40
2021/01/31 10:48:11;;;;;;;;;;;2.50;99.90;;;0.92;66.82;100071.25;5000863;28;19987;-40
2021/01/31 10:50:38;;;;;;;;;;;2.60;99.90;;;0.99;67.23;100066.88;5033599;28;19921;-41
2021/01/31 10:53:05;;;;;;;;;;;2.60;99.90;;;1.03;67.89;100066.53;5000432;28;19921;-41
2021/01/31 10:55:32;;;;;;;;;;;2.70;99.90;;;0.99;66.26;100060.69;5016764;28;19931;-40
2021/01/31 10:58:00;;;;;;;;;;;2.70;99.90;;;1.03;64.75;100062.00;5017120;28;19925;-40
2021/01/31 11:00:27;;;;;;;;;;;2.80;99.90;;;1.03;65.44;100067.38;5033186;28;19927;-40
2021/01/31 11:02:54;;;;;;;;;;;2.80;99.90;;;1.11;66.61;100061.19;5017013;28;19921;-41
2021/01/31 11:05:22;;;;;;;;;;;2.80;99.90;;;1.14;65.99;100061.66;5016797;28;19990;-40
2021/01/31 11:07:49;;;;;;;;;;;2.80;99.90;;;1.15;65.25;100055.28;5049541;28;20387;-40
2021/01/31 11:10:17;;;;;;;;;;;2.90;99.90;;;1.17;65.17;100049.75;5033138;28;19986;-41
2021/01/31 11:12:45;;;;;;;;;;;2.90;99.90;;;1.19;65.43;100047.72;5032989;28;20306;-40
2021/01/31 11:15:13;;;;;;;;;;;2.90;99.90;;;1.22;65.01;100051.94;5016513;28;19921;-41
2021/01/31 11:17:40;;;;;;;;;;;2.90;99.90;;;1.26;65.60;100037.97;5016538;28;19931;-41
2021/01/31 11:20:09;;;;;;;;;;;3.00;99.90;;;1.31;65.44;100039.28;5016657;28;19927;-41
2021/01/31 11:22:37;;;;;;;;;;;2.90;99.90;;;1.34;63.81;100039.81;5032684;28;19925;-41
2021/01/31 11:25:06;;;;;;;;;;;3.00;99.90;;;1.41;65.13;100035.41;5032898;28;19929;-40
2021/01/31 11:27:33;;;;;;;;;;;3.00;99.90;;;1.52;63.42;100034.19;5032899;28;19968;-41
2021/01/31 11:30:00;;;;;;;;;;;3.10;99.90;;;1.61;63.92;100029.66;5032951;28;19929;-41
2021/01/31 11:32:27;;;;;;;;;;;3.20;99.90;;;1.70;63.70;100025.06;5032623;28;19967;-41
2021/01/31 11:34:53;;;;;;;;;;;3.30;99.90;;;1.75;62.58;100022.69;5015919;28;19921;-41
2021/01/31 11:37:20;;;;;;;;;;;3.40;99.90;;;1.79;62.40;100013.25;5032546;28;19927;-40
2021/01/31 11:39:47;;;;;;;;;;;3.40;99.90;;;1.86;63.54;100018.78;5016254;28;20040;-41